createdAt,value
2023-01-29T00:01:15.884Z,9.77
2023-01-29T00:03:47.102Z,10.20
2023-01-29T00:06:21.292Z,9.77
2023-01-29T00:08:53.091Z,10.60
2023-01-29T00:11:26.340Z,9.30
2023-01-29T00:13:57.105Z,11.67
2023-01-29T00:16:28.972Z,11.17
2023-01-29T00:19:00.762Z,11.33
2023-01-29T00:21:34.614Z,10.70
2023-01-29T00:24:03.217Z,11.60
2023-01-29T00:26:33.417Z,11.83
2023-01-29T00:29:04.703Z,11.30
2023-01-29T00:31:35.630Z,10.27
2023-01-29T00:34:07.815Z,11.50
2023-01-29T00:36:41.043Z,11.20
2023-01-29T00:39:13.140Z,11.60
2023-01-29T00:42:04.081Z,11.53
2023-01-29T00:44:52.451Z,10.73
2023-01-29T00:47:39.654Z,11.10
2023-01-29T00:50:13.521Z,10.70
2023-01-29T00:52:49.866Z,11.20
2023-01-29T00:55:22.156Z,10.77
2023-01-29T00:57:57.115Z,10.70
2023-01-29T01:00:29.188Z,10.93
2023-01-29T01:03:07.265Z,10.93
2023-01-29T01:05:40.636Z,10.33
2023-01-29T01:08:28.370Z,10.83
2023-01-29T01:11:08.374Z,10.50
2023-01-29T01:13:40.457Z,10.37
2023-01-29T01:16:12.536Z,11.00
2023-01-29T01:18:44.109Z,10.67
2023-01-29T01:21:15.150Z,10.40
2023-01-29T01:23:45.902Z,10.17
2023-01-29T01:26:19.827Z,10.10
2023-01-29T01:28:52.586Z,11.20
2023-01-29T01:31:23.967Z,10.00
2023-01-29T01:33:54.517Z,9.87
2023-01-29T01:36:25.334Z,9.77
2023-01-29T01:38:58.276Z,10.07
2023-01-29T01:41:29.937Z,10.07
2023-01-29T01:44:01.424Z,9.90
2023-01-29T01:46:34.903Z,9.27
2023-01-29T01:49:13.250Z,9.10
2023-01-29T01:51:49.558Z,8.57
2023-01-29T01:54:27.110Z,9.40
2023-01-29T01:57:06.259Z,9.27
2023-01-29T01:59:39.944Z,10.10
2023-01-29T02:02:28.064Z,8.63
2023-01-29T02:05:16.144Z,8.93
2023-01-29T02:08:07.667Z,9.57
2023-01-29T02:10:47.353Z,8.87
2023-01-29T02:13:23.801Z,9.13
2023-01-29T02:15:55.717Z,8.93
2023-01-29T02:18:28.153Z,8.83
2023-01-29T02:21:26.385Z,9.57
2023-01-29T02:24:43.458Z,8.60
2023-01-29T02:27:19.577Z,8.73
2023-01-29T02:30:03.771Z,8.67
2023-01-29T02:32:42.119Z,7.87
2023-01-29T02:35:31.386Z,8.73
2023-01-29T02:38:14.186Z,8.00
2023-01-29T02:40:49.104Z,8.10
2023-01-29T02:43:34.054Z,8.10
2023-01-29T02:46:16.417Z,7.97
2023-01-29T02:48:56.660Z,7.53
2023-01-29T02:51:37.383Z,8.00
2023-01-29T02:54:17.468Z,7.37
2023-01-29T02:56:58.995Z,6.87
2023-01-29T02:59:41.174Z,8.13
2023-01-29T03:02:20.332Z,8.07
2023-01-29T03:04:56.035Z,7.50
2023-01-29T03:07:46.068Z,7.50
2023-01-29T03:10:24.756Z,6.17
2023-01-29T03:13:01.318Z,7.40
2023-01-29T03:15:40.422Z,7.67
2023-01-29T03:18:19.101Z,7.20
2023-01-29T03:21:00.395Z,6.67
2023-01-29T03:23:49.618Z,7.07
2023-01-29T03:26:40.594Z,7.67
2023-01-29T03:29:32.070Z,7.60
2023-01-29T03:32:08.909Z,7.43
2023-01-29T03:34:45.876Z,7.17
2023-01-29T03:37:22.357Z,8.20
2023-01-29T03:39:54.066Z,7.60
2023-01-29T03:42:31.473Z,6.63
2023-01-29T03:45:09.733Z,7.30
2023-01-29T03:47:49.925Z,7.23
2023-01-29T03:50:35.854Z,7.73
2023-01-29T03:53:12.425Z,7.00
2023-01-29T03:55:54.819Z,7.00
2023-01-29T03:58:38.484Z,8.13
2023-01-29T04:01:18.876Z,7.33
2023-01-29T04:03:56.585Z,6.77
2023-01-29T04:06:33.413Z,7.30
2023-01-29T04:09:08.807Z,7.13
2023-01-29T04:11:45.215Z,7.63
2023-01-29T04:14:17.917Z,6.90
2023-01-29T04:16:54.842Z,7.33
2023-01-29T04:19:29.568Z,8.00
2023-01-29T04:22:10.348Z,8.10
2023-01-29T04:24:42.437Z,7.97
2023-01-29T04:27:29.713Z,9.10
2023-01-29T04:30:12.384Z,8.77
2023-01-29T04:32:59.606Z,8.73
2023-01-29T04:35:39.418Z,7.90
2023-01-29T04:38:20.293Z,8.43
2023-01-29T04:40:58.689Z,8.00
2023-01-29T04:43:38.248Z,8.13
2023-01-29T04:46:19.037Z,8.17
2023-01-29T04:49:08.699Z,8.40
2023-01-29T04:51:56.209Z,7.83
2023-01-29T04:54:38.974Z,8.77
2023-01-29T04:57:18.787Z,8.10
2023-01-29T04:59:56.430Z,7.90
2023-01-29T05:02:30.250Z,8.63
2023-01-29T05:05:03.938Z,8.77
2023-01-29T05:07:37.676Z,9.27
2023-01-29T05:10:13.692Z,8.80
2023-01-29T05:12:46.988Z,9.13
2023-01-29T05:15:22.061Z,9.20
2023-01-29T05:18:03.830Z,8.73
2023-01-29T05:20:41.324Z,10.17
2023-01-29T05:23:19.219Z,8.43
2023-01-29T05:25:54.553Z,8.60
2023-01-29T05:28:25.258Z,9.80
2023-01-29T05:30:59.289Z,7.80
2023-01-29T05:33:32.699Z,9.90
2023-01-29T05:36:07.827Z,9.13
2023-01-29T05:38:39.747Z,9.10
2023-01-29T05:41:18.641Z,8.70
2023-01-29T05:43:50.719Z,9.17
2023-01-29T05:46:25.488Z,8.73
2023-01-29T05:48:57.268Z,8.50
2023-01-29T05:51:29.462Z,9.70
2023-01-29T05:54:01.093Z,8.80
2023-01-29T05:56:34.772Z,7.47
2023-01-29T05:59:06.923Z,8.70
2023-01-29T06:01:38.775Z,8.87
2023-01-29T06:04:09.833Z,9.20
2023-01-29T06:06:41.515Z,8.67
2023-01-29T06:09:14.876Z,8.00
2023-01-29T06:11:48.468Z,8.60
2023-01-29T06:14:22.970Z,8.27
2023-01-29T06:16:55.062Z,8.53
2023-01-29T06:19:27.307Z,8.20
2023-01-29T06:21:58.753Z,8.53
2023-01-29T06:24:31.477Z,8.73
2023-01-29T06:27:06.836Z,8.43
2023-01-29T06:29:39.059Z,8.27
2023-01-29T06:32:10.700Z,9.40
2023-01-29T06:34:43.878Z,8.63
2023-01-29T06:37:16.955Z,10.00
2023-01-29T06:39:49.001Z,9.50
2023-01-29T06:42:28.627Z,7.97
2023-01-29T06:45:00.998Z,7.73
2023-01-29T06:47:35.713Z,9.33
2023-01-29T06:50:12.894Z,9.17
2023-01-29T06:52:44.701Z,8.50
2023-01-29T06:55:17.823Z,9.77
2023-01-29T06:57:51.588Z,8.53
2023-01-29T07:00:27.189Z,9.07
2023-01-29T07:03:00.457Z,8.93
2023-01-29T07:05:35.696Z,8.43
2023-01-29T07:08:10.253Z,8.03
2023-01-29T07:10:46.059Z,5.33
2023-01-29T07:13:18.866Z,5.60
2023-01-29T07:15:50.158Z,5.47
2023-01-29T07:18:22.385Z,5.70
2023-01-29T07:21:03.346Z,5.40
2023-01-29T07:23:35.124Z,6.10
2023-01-29T07:26:08.296Z,6.50
2023-01-29T07:28:44.079Z,7.73
2023-01-29T07:31:17.574Z,6.73
2023-01-29T07:33:50.682Z,7.33
2023-01-29T07:36:23.267Z,7.33
2023-01-29T07:38:56.437Z,7.37
2023-01-29T07:41:26.966Z,7.00
2023-01-29T07:44:01.544Z,7.13
2023-01-29T07:46:32.965Z,8.27
2023-01-29T07:49:05.639Z,9.27
2023-01-29T07:51:41.945Z,8.87
2023-01-29T07:54:15.475Z,8.83
2023-01-29T07:56:49.310Z,8.63
2023-01-29T07:59:25.150Z,8.87
2023-01-29T08:02:00.574Z,8.40
2023-01-29T08:04:32.959Z,9.63
2023-01-29T08:09:52.572Z,9.33
2023-01-29T08:12:21.763Z,9.93
2023-01-29T08:14:52.114Z,8.90
2023-01-29T08:17:56.197Z,9.00
2023-01-29T08:20:26.363Z,8.30
2023-01-29T08:23:01.661Z,8.47
2023-01-29T08:25:30.642Z,6.27
2023-01-29T08:27:59.787Z,5.50
2023-01-29T08:30:31.198Z,4.27
2023-01-29T08:33:02.942Z,4.77
2023-01-29T08:35:31.394Z,4.40
2023-01-29T08:38:01.752Z,4.23
2023-01-29T08:40:31.812Z,5.17
2023-01-29T08:43:02.138Z,5.00
2023-01-29T08:45:34.541Z,4.63
2023-01-29T08:48:02.988Z,4.53
2023-01-29T08:50:34.281Z,4.30
2023-01-29T08:53:04.777Z,5.00
2023-01-29T08:55:42.391Z,5.73
2023-01-29T08:58:14.551Z,4.90
2023-01-29T09:00:49.594Z,4.07
2023-01-29T09:03:19.313Z,4.37
2023-01-29T09:05:51.886Z,4.83
2023-01-29T09:08:20.873Z,5.27
2023-01-29T09:10:50.115Z,4.80
2023-01-29T09:13:19.260Z,5.07
2023-01-29T09:15:49.752Z,5.73
2023-01-29T09:18:18.492Z,5.90
2023-01-29T09:20:50.739Z,6.20
2023-01-29T09:23:20.534Z,7.17
2023-01-29T09:25:54.859Z,7.27
2023-01-29T09:28:25.998Z,6.30
2023-01-29T09:30:55.716Z,8.87
2023-01-29T09:33:24.810Z,7.83
2023-01-29T09:35:52.901Z,7.60
2023-01-29T09:38:22.643Z,7.10
2023-01-29T09:40:59.608Z,6.97
2023-01-29T09:43:36.447Z,6.93
2023-01-29T09:46:24.830Z,7.10
2023-01-29T09:49:01.864Z,7.77
2023-01-29T09:51:42.201Z,7.40
2023-01-29T09:54:26.571Z,6.87
2023-01-29T09:57:00.369Z,7.27
2023-01-29T09:59:33.366Z,6.07
2023-01-29T10:02:11.141Z,6.57
2023-01-29T10:05:38.838Z,7.73
2023-01-29T10:08:36.732Z,7.10
2023-01-29T10:23:40.103Z,6.63
2023-01-29T10:26:12.935Z,7.20
2023-01-29T10:28:48.645Z,6.43
2023-01-29T10:31:21.440Z,6.97
2023-01-29T10:34:03.105Z,6.53
2023-01-29T10:36:36.864Z,6.40
2023-01-29T10:39:10.409Z,6.87
2023-01-29T10:41:56.482Z,6.27
2023-01-29T10:44:40.612Z,6.27
2023-01-29T10:50:40.522Z,6.20
2023-01-29T10:53:45.142Z,5.77
2023-01-29T10:56:29.555Z,6.90
2023-01-29T10:59:22.572Z,7.17
2023-01-29T11:01:53.198Z,6.70
2023-01-29T11:04:25.397Z,6.13
2023-01-29T11:07:00.539Z,7.47
2023-01-29T11:09:37.827Z,6.17
2023-01-29T11:12:20.901Z,6.90
2023-01-29T11:14:56.275Z,5.90
2023-01-29T11:17:29.563Z,6.50
2023-01-29T11:20:01.071Z,6.27
2023-01-29T11:22:35.101Z,6.60
2023-01-29T11:25:19.175Z,6.07
2023-01-29T11:27:53.577Z,6.07
2023-01-29T11:30:31.751Z,6.10
2023-01-29T11:33:15.443Z,5.70
2023-01-29T11:35:46.630Z,6.73
2023-01-29T11:38:25.652Z,6.37
2023-01-29T11:40:54.975Z,6.07
2023-01-29T11:43:33.545Z,6.43
2023-01-29T11:46:07.204Z,6.17
2023-01-29T11:48:49.605Z,6.67
2023-01-29T11:51:26.986Z,6.97
2023-01-29T11:53:58.530Z,7.70
2023-01-29T11:56:35.109Z,6.83
2023-01-29T11:59:09.413Z,7.43
2023-01-29T12:01:42.119Z,6.67
2023-01-29T12:04:23.222Z,6.67
2023-01-29T12:06:56.824Z,6.30
2023-01-29T12:09:30.687Z,5.97
2023-01-29T12:12:28.100Z,7.23
2023-01-29T12:15:20.881Z,7.23
2023-01-29T12:18:00.156Z,7.20
2023-01-29T12:20:38.291Z,6.77
2023-01-29T12:23:23.276Z,7.20
2023-01-29T12:26:04.172Z,7.13
2023-01-29T12:28:48.317Z,6.83
2023-01-29T12:31:36.975Z,7.07
2023-01-29T12:34:17.508Z,7.17
2023-01-29T12:36:58.843Z,7.77
2023-01-29T12:39:33.703Z,7.27
2023-01-29T12:42:12.133Z,6.77
2023-01-29T12:44:50.765Z,8.33
2023-01-29T12:47:27.684Z,6.60
2023-01-29T12:50:01.825Z,6.83
2023-01-29T12:52:45.426Z,7.40
2023-01-29T12:55:23.347Z,8.60
2023-01-29T12:58:03.363Z,8.10
2023-01-29T13:00:44.016Z,8.37
2023-01-29T13:03:25.827Z,7.77
2023-01-29T13:06:00.345Z,8.50
2023-01-29T13:08:40.657Z,7.77
2023-01-29T13:11:16.082Z,7.97
2023-01-29T13:13:54.556Z,8.47
2023-01-29T13:16:29.770Z,7.83
2023-01-29T13:19:04.581Z,8.03
2023-01-29T13:21:41.511Z,8.30
2023-01-29T13:24:17.614Z,8.90
2023-01-29T13:26:54.594Z,7.53
2023-01-29T13:29:30.019Z,7.70
2023-01-29T13:32:06.340Z,8.27
2023-01-29T13:34:41.425Z,7.63
2023-01-29T13:37:21.374Z,7.97
2023-01-29T13:39:55.669Z,7.97
2023-01-29T13:42:29.603Z,7.17
2023-01-29T13:45:10.798Z,8.20
2023-01-29T13:47:43.617Z,7.83
2023-01-29T13:50:33.347Z,8.67
2023-01-29T13:53:08.221Z,7.90
2023-01-29T13:55:42.763Z,9.00
2023-01-29T13:58:20.452Z,8.23
2023-01-29T14:00:56.115Z,7.63
2023-01-29T14:04:07.047Z,8.07
2023-01-29T14:06:59.503Z,8.27
2023-01-29T14:10:01.414Z,8.13
2023-01-29T14:12:57.017Z,8.40
2023-01-29T14:15:35.381Z,7.40
2023-01-29T14:18:24.124Z,7.83
2023-01-29T14:21:10.997Z,8.63
2023-01-29T14:23:49.642Z,9.03
2023-01-29T14:26:33.933Z,7.83
2023-01-29T14:29:11.825Z,7.23
2023-01-29T14:31:51.170Z,7.50
2023-01-29T14:34:29.527Z,8.63
2023-01-29T14:37:04.787Z,9.00
2023-01-29T14:39:44.759Z,8.53
2023-01-29T14:42:26.693Z,8.10
2023-01-29T14:45:07.202Z,7.50
2023-01-29T14:48:02.336Z,8.37
2023-01-29T14:51:14.342Z,7.77
2023-01-29T14:54:05.198Z,7.40
2023-01-29T14:56:46.859Z,7.43
2023-01-29T14:59:28.698Z,7.30
2023-01-29T15:02:03.539Z,7.73
2023-01-29T15:04:45.277Z,7.00
2023-01-29T15:07:30.480Z,8.37
2023-01-29T15:10:23.015Z,9.50
2023-01-29T15:13:16.251Z,8.33
2023-01-29T15:15:53.811Z,6.60
2023-01-29T15:18:38.897Z,7.50
2023-01-29T15:21:29.871Z,7.10
2023-01-29T15:24:20.798Z,7.43
2023-01-29T15:27:22.888Z,7.93
2023-01-29T15:30:10.701Z,7.27
2023-01-29T15:33:06.289Z,7.57
2023-01-29T15:35:44.695Z,8.00
2023-01-29T15:38:22.451Z,7.60
2023-01-29T15:41:01.169Z,7.73
2023-01-29T15:43:39.593Z,7.27
2023-01-29T15:46:17.979Z,7.23
2023-01-29T15:48:53.768Z,8.43
2023-01-29T15:51:30.217Z,7.23
2023-01-29T15:54:34.181Z,7.90
2023-01-29T15:57:29.204Z,7.30
2023-01-29T16:00:05.712Z,7.90
2023-01-29T16:02:44.691Z,7.77
2023-01-29T16:05:26.934Z,7.90
2023-01-29T16:08:17.881Z,7.60
2023-01-29T16:11:09.311Z,6.97
2023-01-29T16:13:52.994Z,7.27
2023-01-29T16:16:28.096Z,7.67
2023-01-29T16:19:04.473Z,7.20
2023-01-29T16:21:53.166Z,7.70
2023-01-29T16:24:24.667Z,7.87
2023-01-29T16:27:01.317Z,8.00
2023-01-29T16:29:34.298Z,7.33
2023-01-29T16:32:05.087Z,7.87
2023-01-29T16:34:38.248Z,8.20
2023-01-29T16:37:08.800Z,8.93
2023-01-29T16:39:44.686Z,7.30
2023-01-29T16:42:37.876Z,8.27
2023-01-29T16:45:28.107Z,8.57
2023-01-29T16:48:07.020Z,7.57
2023-01-29T16:50:53.917Z,7.77
2023-01-29T16:53:27.484Z,8.83
2023-01-29T16:56:07.297Z,8.37
2023-01-29T16:58:37.959Z,7.03
2023-01-29T17:01:12.857Z,7.43
2023-01-29T17:03:54.505Z,7.17
2023-01-29T17:06:25.689Z,7.53
2023-01-29T17:08:55.023Z,7.37
2023-01-29T17:11:31.953Z,8.63
2023-01-29T17:14:00.587Z,7.63
2023-01-29T17:16:40.609Z,8.17
2023-01-29T17:19:21.949Z,8.17
2023-01-29T17:21:50.702Z,7.63
2023-01-29T17:24:19.160Z,7.57
2023-01-29T17:26:47.484Z,7.87
2023-01-29T17:29:18.733Z,9.00
2023-01-29T17:31:51.937Z,7.43
2023-01-29T17:34:20.882Z,7.60
2023-01-29T17:36:49.196Z,7.90
2023-01-29T17:39:20.054Z,7.87
2023-01-29T17:41:52.250Z,7.50
2023-01-29T17:44:20.660Z,9.10
2023-01-29T17:46:51.977Z,8.77
2023-01-29T17:49:24.805Z,9.13
2023-01-29T17:51:55.614Z,8.33
2023-01-29T17:54:25.763Z,8.20
2023-01-29T17:56:54.770Z,8.40
2023-01-29T17:59:25.197Z,9.30
2023-01-29T18:05:01.474Z,7.77
2023-01-29T18:07:29.968Z,7.17
2023-01-29T18:09:58.197Z,7.30
2023-01-29T18:12:54.667Z,8.17
2023-01-29T18:15:23.210Z,7.53
2023-01-29T18:18:30.421Z,9.03
2023-01-29T18:21:00.336Z,6.73
2023-01-29T18:23:30.472Z,9.03
2023-01-29T18:26:01.681Z,7.80
2023-01-29T18:28:33.189Z,7.60
2023-01-29T18:31:06.205Z,7.50
2023-01-29T18:33:35.347Z,7.23
2023-01-29T18:36:07.569Z,5.67
2023-01-29T18:38:38.550Z,8.43
2023-01-29T18:41:12.988Z,8.10
2023-01-29T18:43:46.758Z,8.03
2023-01-29T18:46:19.464Z,8.93
2023-01-29T18:48:47.844Z,8.53
2023-01-29T18:51:30.356Z,7.47
2023-01-29T18:54:00.094Z,8.80
2023-01-29T18:56:28.275Z,7.37
2023-01-29T18:58:57.089Z,8.47
2023-01-29T19:01:29.961Z,8.50
2023-01-29T19:04:00.711Z,7.37
2023-01-29T19:06:30.469Z,7.70
2023-01-29T19:09:01.244Z,7.70
2023-01-29T19:11:33.204Z,7.70
2023-01-29T19:14:04.173Z,8.43
2023-01-29T19:16:33.359Z,8.40
2023-01-29T19:19:02.193Z,7.70
2023-01-29T19:21:35.972Z,6.90
2023-01-29T19:24:07.969Z,8.70
2023-01-29T19:26:36.659Z,8.53
2023-01-29T19:29:07.511Z,8.57
2023-01-29T19:31:47.123Z,7.97
2023-01-29T19:34:15.475Z,9.60
2023-01-29T19:36:45.275Z,8.67
2023-01-29T19:39:16.639Z,9.27
2023-01-29T19:41:45.219Z,8.33
2023-01-29T19:44:18.580Z,8.03
2023-01-29T19:46:48.976Z,8.90
2023-01-29T19:49:20.918Z,9.83
2023-01-29T19:51:52.751Z,9.00
2023-01-29T19:54:23.861Z,8.00
2023-01-29T19:56:57.514Z,8.30
2023-01-29T20:02:12.179Z,8.93
2023-01-29T20:04:42.239Z,9.07
2023-01-29T20:07:13.993Z,8.70
2023-01-29T20:09:45.043Z,9.37
2023-01-29T20:15:03.970Z,8.87
2023-01-29T20:17:33.406Z,8.83
2023-01-29T20:20:02.527Z,9.03
2023-01-29T20:22:32.993Z,9.23
2023-01-29T20:25:01.113Z,8.97
2023-01-29T20:27:29.139Z,8.90
2023-01-29T20:29:57.583Z,7.60
2023-01-29T20:32:25.596Z,8.83
2023-01-29T20:34:53.709Z,9.33
2023-01-29T20:37:22.019Z,7.70
2023-01-29T20:39:51.850Z,8.87
2023-01-29T20:42:21.719Z,9.30
2023-01-29T20:44:50.271Z,9.13
2023-01-29T20:47:19.455Z,10.33
2023-01-29T20:49:48.385Z,8.57
2023-01-29T20:52:16.882Z,8.93
2023-01-29T20:54:47.575Z,8.10
2023-01-29T20:57:17.966Z,7.73
2023-01-29T20:59:48.663Z,8.83
2023-01-29T21:02:17.833Z,8.73
2023-01-29T21:04:47.061Z,9.80
2023-01-29T21:07:17.528Z,9.40
2023-01-29T21:09:46.520Z,8.63
2023-01-29T21:12:15.784Z,9.03
2023-01-29T21:14:53.556Z,8.80
2023-01-29T21:17:26.708Z,9.43
2023-01-29T21:19:57.238Z,9.70
2023-01-29T21:22:26.797Z,9.33
2023-01-29T21:24:55.719Z,9.97
2023-01-29T21:27:26.060Z,9.93
2023-01-29T21:29:57.665Z,10.03
2023-01-29T21:32:28.221Z,9.13
2023-01-29T21:34:57.012Z,10.60
2023-01-29T21:37:26.059Z,9.90
2023-01-29T21:39:54.610Z,10.50
2023-01-29T21:42:41.097Z,11.03
2023-01-29T21:45:11.925Z,10.67
2023-01-29T21:47:40.694Z,10.37
2023-01-29T21:50:15.420Z,10.40
2023-01-29T21:52:44.301Z,10.20
2023-01-29T21:55:15.316Z,11.60
2023-01-29T21:57:44.874Z,10.47
2023-01-29T22:00:16.404Z,10.77
2023-01-29T22:02:45.733Z,11.00
2023-01-29T22:05:19.410Z,10.23
2023-01-29T22:07:48.413Z,11.57
2023-01-29T22:10:17.506Z,10.53
2023-01-29T22:12:47.326Z,11.10
2023-01-29T22:15:17.506Z,9.80
2023-01-29T22:17:45.954Z,10.23
2023-01-29T22:20:15.911Z,10.33
2023-01-29T22:22:44.735Z,10.53
2023-01-29T22:25:13.287Z,10.60
2023-01-29T22:27:41.720Z,10.30
2023-01-29T22:30:11.449Z,11.17
2023-01-29T22:33:08.149Z,11.30
2023-01-29T22:35:36.401Z,6.53
2023-01-29T22:38:04.996Z,10.60
2023-01-29T22:40:33.380Z,11.30
2023-01-29T22:43:01.949Z,10.20
2023-01-29T22:45:29.999Z,10.37
2023-01-29T22:47:59.888Z,9.50
2023-01-29T22:50:28.366Z,10.87
2023-01-29T22:52:58.949Z,11.47
2023-01-29T22:55:30.109Z,11.20
2023-01-29T22:58:01.319Z,10.83
2023-01-29T23:00:32.704Z,9.77
2023-01-29T23:03:06.040Z,11.90
2023-01-29T23:05:38.645Z,12.00
2023-01-29T23:08:13.810Z,11.47
2023-01-29T23:10:48.075Z,10.33
2023-01-29T23:13:31.142Z,11.03
2023-01-29T23:16:03.546Z,10.70
2023-01-29T23:18:39.478Z,10.23
2023-01-29T23:21:14.134Z,11.30
2023-01-29T23:23:45.971Z,11.63
2023-01-29T23:26:34.395Z,12.17
2023-01-29T23:29:05.862Z,11.97
2023-01-29T23:31:37.770Z,10.57
2023-01-29T23:34:14.525Z,7.63
2023-01-29T23:36:46.584Z,12.47
2023-01-29T23:39:18.562Z,11.50
2023-01-29T23:41:51.327Z,11.53
2023-01-29T23:44:23.223Z,11.23
2023-01-29T23:46:55.213Z,12.00
2023-01-29T23:49:28.404Z,11.10
2023-01-29T23:52:05.253Z,11.97
2023-01-29T23:54:36.789Z,11.87
2023-01-29T23:57:08.102Z,12.93
2023-01-29T23:59:39.990Z,12.37
